Time;durP1;ratioP1;P1;durP2;ratioP2;P2;SDS_P1;SDS_P2;PMS_P1;PMS_P2;Temp;Humidity;BMP_temperature;BMP_pressure;BME280_temperature;BME280_humidity;BME280_pressure;Samples;Min_cycle;Max_cycle;Signal;HPM_P1;HPM_P2
2022/03/24 00:00:08;;;;;;;39.10;31.63;;;;;;;7.34;56.83;102850.94;5011660;28;20079;-85
2022/03/24 00:02:36;;;;;;;38.55;30.02;;;;;;;7.47;56.44;102860.81;5029131;28;20029;-86
2022/03/24 00:05:04;;;;;;;37.40;31.08;;;;;;;7.43;57.32;102855.75;5015456;28;20496;-85
2022/03/24 00:07:30;;;;;;;37.67;31.25;;;;;;;7.38;57.95;102847.31;5006046;28;20411;-86
2022/03/24 00:10:14;;;;;;;;;;;;;;;;;;;;;
2022/03/24 00:12:43;;;;;;;36.80;32.28;;;;;;;7.57;58.65;102887.97;5009901;28;20309;-85
2022/03/24 00:15:16;;;;;;;40.97;31.83;;;;;;;7.59;56.85;102904.28;5007015;28;20461;-84
2022/03/24 00:17:44;;;;;;;39.40;31.42;;;;;;;7.34;57.64;102870.72;5010081;28;20022;-85
2022/03/24 00:20:14;;;;;;;33.40;29.80;;;;;;;7.23;56.66;102858.22;4991454;28;20065;-85
2022/03/24 00:22:40;;;;;;;36.75;30.45;;;;;;;7.19;57.09;102851.47;4991216;28;20030;-84
2022/03/24 00:25:06;;;;;;;36.10;29.23;;;;;;;7.28;57.05;102866.59;5009080;28;20045;-85
2022/03/24 00:27:31;;;;;;;35.00;28.88;;;;;;;7.31;57.16;102876.84;4992348;28;20144;-86
2022/03/24 00:30:07;;;;;;;;;;;;;;;;;;;;;
2022/03/24 00:32:35;;;;;;;36.28;28.90;;;;;;;7.08;56.55;102848.41;5030237;28;20035;-86
2022/03/24 00:35:03;;;;;;;37.03;28.85;;;;;;;7.31;57.55;102871.69;5004086;28;20040;-85
2022/03/24 00:37:36;;;;;;;35.72;29.95;;;;;;;7.20;57.67;102847.97;5007039;28;20076;-86
2022/03/24 00:40:16;;;;;;;35.65;29.25;;;;;;;7.24;59.16;102859.91;4993014;28;20362;-86
2022/03/24 00:42:52;;;;;;;36.65;29.80;;;;;;;7.00;58.99;102840.09;5009656;28;20348;-85
2022/03/24 00:45:20;;;;;;;33.55;28.27;;;;;;;7.08;60.36;102863.91;4995391;28;20033;-84
2022/03/24 00:47:56;;;;;;;33.20;28.80;;;;;;;6.95;60.90;102842.00;5011515;28;20102;-86
2022/03/24 00:50:22;;;;;;;38.42;29.75;;;;;;;7.10;60.04;102862.09;5004205;28;20124;-86
2022/03/24 00:52:53;;;;;;;36.67;29.65;;;;;;;7.02;60.90;102853.78;4992934;28;20126;-84
2022/03/24 00:55:27;;;;;;;33.63;28.70;;;;;;;6.97;61.47;102866.00;5015146;28;20112;-84
2022/03/24 00:58:08;;;;;;;;;;;;;;;;;;;;;
2022/03/24 01:00:39;;;;;;;37.33;30.25;;;;;;;6.72;61.61;102835.88;5007961;28;20385;-85
2022/03/24 01:03:13;;;;;;;36.17;29.13;;;;;;;6.90;61.37;102849.88;4994315;28;20040;-84
2022/03/24 01:05:38;;;;;;;37.55;30.55;;;;;;;6.87;62.77;102843.06;5019543;28;20037;-85
2022/03/24 01:08:24;;;;;;;38.97;30.60;;;;;;;7.02;62.02;102870.09;5010462;28;20030;-88
2022/03/24 01:11:11;;;;;;;36.75;30.58;;;;;;;6.70;65.77;102817.00;5010607;28;20045;-86
2022/03/24 01:13:43;;;;;;;37.60;31.40;;;;;;;6.62;65.40;102803.53;5007689;28;20428;-85
2022/03/24 01:16:09;;;;;;;37.10;31.45;;;;;;;6.73;64.33;102840.13;5010905;28;20037;-82
2022/03/24 01:18:37;;;;;;;33.47;29.45;;;;;;;6.72;64.51;102825.56;4991275;28;20020;-82
2022/03/24 01:21:16;;;;;;;34.97;30.20;;;;;;;6.61;64.81;102818.19;4990614;28;20220;-81
2022/03/24 01:23:47;;;;;;;35.47;29.77;;;;;;;6.72;64.71;102835.03;5018614;28;20381;-81
2022/03/24 01:26:14;;;;;;;33.40;29.40;;;;;;;6.62;64.48;102824.16;5027013;28;20033;-81
2022/03/24 01:28:41;;;;;;;38.30;30.35;;;;;;;6.77;64.80;102856.34;5020383;28;20069;-81
2022/03/24 01:31:08;;;;;;;38.20;30.05;;;;;;;6.78;64.91;102866.63;4990442;28;20037;-81
2022/03/24 01:33:38;;;;;;;39.58;29.60;;;;;;;6.57;64.28;102836.38;5007952;28;20041;-80
2022/03/24 01:36:09;;;;;;;37.30;31.38;;;;;;;6.33;66.14;102807.91;4993705;28;20044;-81
2022/03/24 01:38:37;;;;;;;38.08;31.25;;;;;;;6.34;65.89;102809.59;5010021;28;20120;-82
2022/03/24 01:41:04;;;;;;;35.83;30.85;;;;;;;6.69;66.07;102858.31;5018710;28;20022;-82
2022/03/24 01:43:32;;;;;;;36.97;30.17;;;;;;;6.53;66.86;102842.50;4990352;28;20517;-82
2022/03/24 01:46:00;;;;;;;34.88;29.10;;;;;;;6.32;66.44;102816.53;5007827;28;20241;-81
2022/03/24 01:48:26;;;;;;;36.83;30.10;;;;;;;6.30;66.21;102802.84;4989699;28;20073;-82
2022/03/24 01:50:56;;;;;;;36.75;29.85;;;;;;;6.26;66.48;102800.44;5017492;28;20084;-83
2022/03/24 01:53:23;;;;;;;34.47;30.20;;;;;;;6.41;67.19;102841.16;5008476;28;20061;-82
2022/03/24 01:55:51;;;;;;;38.40;31.35;;;;;;;6.25;68.24;102820.22;5007275;28;20026;-81
2022/03/24 01:58:20;;;;;;;39.08;30.73;;;;;;;6.15;68.43;102795.63;5007901;28;20060;-82
2022/03/24 02:00:48;;;;;;;38.97;33.00;;;;;;;6.16;69.60;102799.88;5014994;28;20120;-82
2022/03/24 02:03:16;;;;;;;39.75;31.17;;;;;;;6.08;69.42;102796.72;5008030;28;20124;-82
2022/03/24 02:05:46;;;;;;;40.63;31.88;;;;;;;6.28;71.85;102834.72;5017118;28;20065;-81
2022/03/24 02:08:11;;;;;;;38.13;31.38;;;;;;;6.01;71.41;102779.75;4988691;28;20029;-82
2022/03/24 02:10:53;;;;;;;36.30;31.70;;;;;;;5.98;72.89;102777.28;5015040;28;20041;-84
2022/03/24 02:13:19;;;;;;;37.10;31.25;;;;;;;5.94;72.37;102788.56;5003987;28;20447;-84
2022/03/24 02:15:51;;;;;;;34.30;29.95;;;;;;;5.97;71.80;102778.16;4990832;28;20029;-81
2022/03/24 02:18:19;;;;;;;34.90;29.13;;;;;;;6.14;71.91;102822.28;5007324;28;20052;-82
2022/03/24 02:20:47;;;;;;;37.70;31.73;;;;;;;6.13;73.54;102833.44;5025679;28;20025;-82
2022/03/24 02:23:15;;;;;;;37.35;30.75;;;;;;;5.82;72.04;102782.84;4989318;28;20080;-82
2022/03/24 02:25:44;;;;;;;36.53;31.00;;;;;;;5.78;73.18;102788.97;5006107;28;20457;-82
2022/03/24 02:28:12;;;;;;;38.05;29.90;;;;;;;5.70;73.23;102779.81;5022917;28;20026;-82
2022/03/24 02:30:47;;;;;;;36.28;30.05;;;;;;;6.00;72.60;102817.53;5002571;28;20032;-82
2022/03/24 02:33:22;;;;;;;;;;;;;;;;;;;;;
2022/03/24 02:35:54;;;;;;;38.15;29.55;;;;;;;6.05;72.79;102832.84;5006316;28;20018;-83
2022/03/24 02:38:20;;;;;;;36.30;29.95;;;;;;;5.81;71.55;102788.91;4989395;28;20057;-82
2022/03/24 02:40:51;;;;;;;33.95;29.10;;;;;;;5.62;72.50;102772.31;5009350;28;20076;-82
2022/03/24 02:43:27;;;;;;;34.83;29.17;;;;;;;5.61;72.26;102775.75;5000956;28;20213;-82
2022/03/24 02:45:53;;;;;;;33.90;28.85;;;;;;;5.79;71.69;102800.13;5009648;28;20149;-82
2022/03/24 02:48:24;;;;;;;35.70;29.10;;;;;;;5.78;72.15;102808.72;4989819;28;20041;-82
2022/03/24 02:51:06;;;;;;;38.08;30.02;;;;;;;5.70;71.28;102784.97;4988785;28;20026;-82
2022/03/24 02:53:31;;;;;;;34.28;28.38;;;;;;;5.88;70.92;102806.72;5006219;28;20040;-82
2022/03/24 02:56:09;;;;;;;;;;;;;;;;;;;;;
2022/03/24 02:58:40;;;;;;;34.10;28.83;;;;;;;5.69;69.40;102799.56;4983912;28;1188195;-81
2022/03/24 03:01:13;;;;;;;35.05;28.40;;;;;;;5.55;69.28;102781.94;4987781;28;20290;-81
2022/03/24 03:03:39;;;;;;;33.35;27.67;;;;;;;5.56;69.25;102798.22;5003762;28;20044;-82
2022/03/24 03:06:15;;;;;;;35.55;27.77;;;;;;;5.49;69.12;102791.56;5003627;28;20124;-83
2022/03/24 03:08:47;;;;;;;31.08;27.05;;;;;;;5.58;68.89;102801.59;5007978;28;20033;-83
2022/03/24 03:11:16;;;;;;;34.53;27.58;;;;;;;5.61;68.02;102806.66;5009785;28;20444;-83
2022/03/24 03:13:43;;;;;;;38.05;27.77;;;;;;;5.56;67.74;102798.22;5008247;28;20064;-83
2022/03/24 03:16:09;;;;;;;34.83;27.73;;;;;;;5.41;68.84;102768.63;5006835;28;20056;-83
2022/03/24 03:18:34;;;;;;;31.23;25.92;;;;;;;5.31;67.92;102778.34;4991359;28;20520;-83
2022/03/24 03:21:00;;;;;;;32.53;26.55;;;;;;;5.42;67.98;102806.34;5008176;28;20026;-82
2022/03/24 03:23:26;;;;;;;32.60;26.80;;;;;;;5.52;67.40;102822.38;5019167;28;20066;-82
2022/03/24 03:25:52;;;;;;;36.65;26.92;;;;;;;5.28;67.49;102788.72;5026555;28;20112;-82
2022/03/24 03:28:27;;;;;;;31.02;26.15;;;;;;;5.26;67.76;102790.47;5025611;28;20079;-82
2022/03/24 03:31:05;;;;;;;;;;;;;;;;;;;;;
2022/03/24 03:33:32;;;;;;;35.73;27.77;;;;;;;5.48;68.33;102831.06;5006796;28;20378;-82
2022/03/24 03:35:58;;;;;;;35.75;26.63;;;;;;;5.05;68.77;102760.22;5009858;28;20545;-82
2022/03/24 03:38:26;;;;;;;35.10;27.85;;;;;;;5.17;69.47;102777.88;5029257;28;20037;-82
2022/03/24 03:40:53;;;;;;;31.30;26.58;;;;;;;5.31;68.81;102798.91;5030126;28;20095;-82
2022/03/24 03:43:18;;;;;;;33.58;26.10;;;;;;;5.29;69.54;102797.28;5010336;28;20054;-81
2022/03/24 03:45:49;;;;;;;32.13;25.83;;;;;;;5.16;69.22;102793.34;5007185;28;20072;-81
2022/03/24 03:48:14;;;;;;;30.52;26.35;;;;;;;5.30;69.72;102820.38;5011696;28;20335;-81
2022/03/24 03:50:43;;;;;;;33.47;27.20;;;;;;;5.02;69.69;102776.56;5011405;28;20032;-82
2022/03/24 03:53:09;;;;;;;31.52;25.92;;;;;;;5.25;70.04;102826.53;4997001;28;20152;-82
2022/03/24 03:55:36;;;;;;;33.13;26.23;;;;;;;5.29;69.72;102829.00;5009796;28;20466;-82
2022/03/24 03:58:11;;;;;;;33.25;26.05;;;;;;;5.10;70.40;102812.34;5007704;28;20068;-82
2022/03/24 04:00:56;;;;;;;30.00;25.85;;;;;;;5.10;70.26;102822.66;5028468;28;20025;-82
2022/03/24 04:03:27;;;;;;;33.05;26.38;;;;;;;4.87;70.66;102791.56;5011501;28;20036;-81
2022/03/24 04:05:57;;;;;;;32.03;26.58;;;;;;;4.72;71.12;102773.09;5011551;28;20037;-82
2022/03/24 04:08:24;;;;;;;32.03;26.92;;;;;;;5.00;73.30;102810.94;5011634;28;20030;-81
2022/03/24 04:10:50;;;;;;;32.08;27.83;;;;;;;4.95;73.02;102811.06;4991801;28;20029;-81
2022/03/24 04:13:19;;;;;;;35.58;27.80;;;;;;;4.79;73.26;102778.91;5009082;28;20481;-81
2022/03/24 04:15:50;;;;;;;35.05;26.95;;;;;;;4.94;72.95;102823.97;4993568;28;20438;-80
2022/03/24 04:18:18;;;;;;;36.10;27.35;;;;;;;4.86;72.44;102811.28;5022010;23;20277;-81
2022/03/24 04:20:44;;;;;;;33.22;27.98;;;;;;;4.83;72.63;102800.25;4997452;28;20034;-81
2022/03/24 04:23:11;;;;;;;34.75;29.02;;;;;;;4.97;73.55;102829.84;5003302;28;20030;-81
2022/03/24 04:25:37;;;;;;;30.73;26.02;;;;;;;4.68;72.43;102776.59;5008823;28;20045;-81
2022/03/24 04:28:05;;;;;;;30.13;26.25;;;;;;;4.68;72.10;102789.47;5007378;28;20044;-80
2022/03/24 04:30:34;;;;;;;33.20;27.48;;;;;;;4.59;72.58;102779.44;4991813;28;20041;-82
2022/03/24 04:33:00;;;;;;;34.75;27.23;;;;;;;4.91;72.35;102821.44;4992662;28;20069;-82
2022/03/24 04:35:27;;;;;;;36.10;27.02;;;;;;;4.96;71.53;102832.47;4987919;28;20077;-81
2022/03/24 04:38:00;;;;;;;37.83;28.10;;;;;;;4.79;71.28;102809.75;5001887;28;20029;-82
2022/03/24 04:40:29;;;;;;;33.17;26.70;;;;;;;4.48;71.47;102774.56;5007436;28;20098;-81
2022/03/24 04:42:54;;;;;;;;;;;;;;;5.09;69.72;102833.81;5007246;28;20034;-82
2022/03/24 04:45:23;;;;;;;31.25;26.88;;;;;;;4.82;71.41;102839.66;5008193;28;20320;-81
2022/03/24 04:47:54;;;;;;;36.40;27.13;;;;;;;4.79;70.62;102825.19;4998149;28;20022;-82
2022/03/24 04:50:24;;;;;;;36.50;27.88;;;;;;;4.78;70.96;102824.34;4997579;28;20034;-82
2022/03/24 04:52:50;;;;;;;36.13;28.00;;;;;;;4.50;71.95;102787.34;4997455;28;20038;-81
2022/03/24 04:55:18;;;;;;;32.22;26.80;;;;;;;4.69;71.42;102819.41;4998645;28;20036;-81
2022/03/24 04:57:46;;;;;;;36.10;28.23;;;;;;;4.66;71.60;102814.38;4995091;28;20069;-81
2022/03/24 05:00:40;;;;;;;;;;;;;;;;;;;;;
2022/03/24 05:03:08;;;;;;;32.42;27.13;;;;;;;4.68;71.13;102840.88;4992266;28;20360;-81
2022/03/24 05:05:36;;;;;;;31.75;26.83;;;;;;;4.58;71.61;102838.56;4997745;28;20109;-81
2022/03/24 05:08:01;;;;;;;32.28;27.85;;;;;;;4.61;71.70;102841.91;5001415;28;20061;-80
2022/03/24 05:10:29;;;;;;;32.10;27.40;;;;;;;4.23;71.36;102794.84;5001542;28;20489;-80
2022/03/24 05:13:04;;;;;;;35.13;27.10;;;;;;;4.43;71.48;102808.94;4996856;28;20036;-81
2022/03/24 05:15:32;;;;;;;33.80;28.05;;;;;;;4.44;71.58;102808.06;4997506;28;20030;-80
2022/03/24 05:17:57;;;;;;;34.42;27.13;;;;;;;4.36;71.35;102804.81;5011236;28;20492;-81
2022/03/24 05:20:23;;;;;;;33.22;27.63;;;;;;;4.23;72.04;102794.00;4995231;28;20033;-81
2022/03/24 05:22:49;;;;;;;34.10;28.33;;;;;;;4.29;71.43;102813.56;5007794;28;20029;-81
2022/03/24 05:25:14;;;;;;;34.60;27.38;;;;;;;4.29;71.03;102823.81;5008229;28;20350;-80
2022/03/24 05:27:42;;;;;;;35.42;27.85;;;;;;;4.13;70.98;102798.53;5027094;28;20032;-80
2022/03/24 05:30:08;;;;;;;33.38;27.35;;;;;;;4.18;71.58;102817.22;5010117;28;20057;-80
2022/03/24 05:32:34;;;;;;;34.28;27.95;;;;;;;4.20;71.73;102820.59;5020394;28;20140;-84
2022/03/24 05:35:02;;;;;;;34.13;28.00;;;;;;;4.08;72.13;102813.19;5005690;28;20104;-81
2022/03/24 05:37:28;;;;;;;36.00;27.83;;;;;;;4.14;71.12;102819.91;5019525;28;20029;-81
2022/03/24 05:39:55;;;;;;;33.42;27.98;;;;;;;4.02;71.48;102815.88;5027191;28;20087;-82
2022/03/24 05:42:27;;;;;;;33.30;28.05;;;;;;;3.92;71.84;102794.69;5003524;28;20032;-82
2022/03/24 05:44:55;;;;;;;34.17;27.67;;;;;;;3.88;71.09;102792.22;4997288;28;20128;-82
2022/03/24 05:47:33;;;;;;;33.40;26.83;;;;;;;4.18;71.88;102853.16;4995525;28;20030;-82
2022/03/24 05:49:58;;;;;;;33.90;28.52;;;;;;;3.97;71.13;102807.44;4990418;28;20038;-81
2022/03/24 05:52:24;;;;;;;33.15;27.65;;;;;;;4.05;72.02;102826.06;5008480;28;20029;-81
2022/03/24 05:54:49;;;;;;;36.28;27.42;;;;;;;3.83;72.30;102799.19;5009065;28;20390;-81
2022/03/24 05:57:15;;;;;;;36.05;28.38;;;;;;;4.00;71.88;102807.34;5003410;28;20064;-81
2022/03/24 05:59:40;;;;;;;36.67;27.65;;;;;;;4.19;72.81;102848.91;5011197;28;20071;-81
2022/03/24 06:02:06;;;;;;;34.95;28.63;;;;;;;4.17;73.38;102851.47;4994568;28;20442;-82
2022/03/24 06:04:32;;;;;;;33.83;28.48;;;;;;;4.18;72.98;102853.16;4992341;28;20102;-81
2022/03/24 06:06:58;;;;;;;36.65;29.15;;;;;;;4.07;73.83;102844.00;5001971;28;20040;-81
2022/03/24 06:09:24;;;;;;;31.80;26.55;;;;;;;4.13;73.03;102849.88;5008379;28;20028;-81
2022/03/24 06:11:52;;;;;;;32.75;27.90;;;;;;;4.16;73.16;102859.22;5026424;28;20017;-81
2022/03/24 06:14:17;;;;;;;36.15;28.52;;;;;;;4.21;72.90;102854.84;5027129;28;20029;-81
2022/03/24 06:16:42;;;;;;;35.97;28.77;;;;;;;4.14;74.13;102851.56;5026410;28;20049;-81
2022/03/24 06:19:09;;;;;;;39.92;29.33;;;;;;;4.17;73.64;102846.34;5026737;28;20055;-81
2022/03/24 06:21:35;;;;;;;41.17;28.48;;;;;;;4.19;73.80;102865.16;5020845;28;20076;-81
2022/03/24 06:24:01;;;;;;;37.05;28.80;;;;;;;4.27;74.13;102854.69;5013974;28;20037;-81
2022/03/24 06:26:28;;;;;;;38.78;28.95;;;;;;;4.26;74.15;102851.28;5024517;28;20448;-81
2022/03/24 06:28:54;;;;;;;37.00;28.95;;;;;;;4.31;73.80;102845.22;5026637;28;20021;-82
2022/03/24 06:31:20;;;;;;;37.72;29.92;;;;;;;4.40;75.38;102862.97;5005556;28;20025;-82
2022/03/24 06:33:45;;;;;;;36.65;29.05;;;;;;;4.46;74.60;102860.25;5007062;28;20431;-81
2022/03/24 06:36:10;;;;;;;34.08;28.17;;;;;;;4.50;74.60;102859.31;4989113;28;20033;-81
2022/03/24 06:38:37;;;;;;;39.78;29.77;;;;;;;4.56;74.95;102869.44;5020685;28;20457;-83
2022/03/24 06:41:05;;;;;;;40.15;31.25;;;;;;;4.67;76.26;102877.75;5008374;28;20037;-83
2022/03/24 06:43:31;;;;;;;41.15;33.17;;;;;;;4.73;77.16;102872.44;5015556;28;20050;-83
2022/03/24 06:45:57;;;;;;;39.70;31.20;;;;;;;4.74;77.55;102869.00;5011969;28;20060;-83
2022/03/24 06:48:22;;;;;;;42.92;33.15;;;;;;;4.94;77.56;102877.97;5008229;28;20041;-83
2022/03/24 06:50:49;;;;;;;41.13;32.60;;;;;;;4.97;77.09;102865.00;5013923;28;20034;-81
2022/03/24 06:53:15;;;;;;;42.22;34.13;;;;;;;5.12;78.76;102869.75;5014213;28;20040;-81
2022/03/24 06:55:40;;;;;;;46.33;34.38;;;;;;;5.23;77.94;102867.75;5022638;28;20460;-83
2022/03/24 06:58:06;;;;;;;39.15;33.33;;;;;;;5.30;77.77;102871.84;4995260;28;20025;-81
2022/03/24 07:00:31;;;;;;;42.40;34.78;;;;;;;5.35;77.96;102860.59;5001658;28;20495;-81
2022/03/24 07:02:58;;;;;;;45.47;35.88;;;;;;;5.44;78.73;102868.06;5000691;28;20543;-82
2022/03/24 07:05:24;;;;;;;47.17;37.13;;;;;;;5.53;78.19;102871.22;4995466;28;20030;-82
2022/03/24 07:07:50;;;;;;;42.00;34.65;;;;;;;5.58;77.65;102869.38;5014197;28;20053;-82
2022/03/24 07:10:15;;;;;;;43.97;36.45;;;;;;;5.63;77.52;102866.69;4996500;28;20161;-82
2022/03/24 07:12:40;;;;;;;44.60;35.67;;;;;;;5.73;78.05;102860.34;5023991;28;20100;-83
2022/03/24 07:15:08;;;;;;;43.78;35.75;;;;;;;5.82;76.78;102866.97;5017430;28;20461;-82
2022/03/24 07:17:33;;;;;;;44.20;36.30;;;;;;;5.88;77.45;102865.97;5020848;28;20037;-84
2022/03/24 07:19:59;;;;;;;44.55;36.50;;;;;;;5.96;76.97;102858.88;5020664;28;20040;-81
2022/03/24 07:22:24;;;;;;;48.85;35.80;;;;;;;6.11;75.37;102874.72;5028691;28;20044;-82
2022/03/24 07:24:50;;;;;;;51.60;38.15;;;;;;;6.15;73.65;102866.91;5026970;28;20029;-81
2022/03/24 07:27:16;;;;;;;52.58;36.75;;;;;;;6.23;73.08;102868.34;5016005;28;20067;-82
2022/03/24 07:29:41;;;;;;;50.90;37.75;;;;;;;6.34;72.47;102881.75;5020041;28;20058;-83
2022/03/24 07:32:08;;;;;;;56.08;38.95;;;;;;;6.41;72.45;102881.56;5014363;28;20040;-83
2022/03/24 07:34:34;;;;;;;48.28;38.67;;;;;;;6.45;71.31;102880.59;5028952;28;20120;-82
2022/03/24 07:36:59;;;;;;;48.58;39.38;;;;;;;6.44;71.04;102866.03;5018302;28;20569;-83
2022/03/24 07:39:25;;;;;;;52.40;40.53;;;;;;;6.54;71.00;102868.25;5009769;28;20029;-84
2022/03/24 07:41:50;;;;;;;50.80;38.58;;;;;;;6.55;70.28;102858.78;5009601;28;20025;-83
2022/03/24 07:44:15;;;;;;;48.85;38.63;;;;;;;6.81;69.82;102886.28;5009421;28;20038;-83
2022/03/24 07:46:41;;;;;;;46.75;38.60;;;;;;;6.86;70.40;102880.09;4978577;28;20056;-84
2022/03/24 07:49:06;;;;;;;49.13;38.67;;;;;;;6.92;69.55;102876.47;5029265;28;20029;-83
2022/03/24 07:51:34;;;;;;;47.20;35.25;;;;;;;7.07;67.93;102882.84;5002381;28;20075;-83
2022/03/24 07:54:02;;;;;;;42.95;35.13;;;;;;;7.09;67.63;102875.91;4991612;28;20030;-84
2022/03/24 07:56:29;;;;;;;44.53;35.40;;;;;;;7.28;66.24;102892.44;5010626;28;20533;-82
2022/03/24 07:58:56;;;;;;;40.03;35.40;;;;;;;7.36;67.13;102884.44;5015717;28;20477;-84
2022/03/24 08:01:29;;;;;;;44.70;36.00;;;;;;;7.43;67.96;102879.00;5018850;28;20026;-84
2022/03/24 08:03:58;;;;;;;41.17;33.53;;;;;;;7.59;65.86;102886.19;5020123;28;20064;-84
2022/03/24 08:06:24;;;;;;;40.55;35.20;;;;;;;7.75;66.96;102889.91;5017342;28;20021;-83
2022/03/24 08:08:49;;;;;;;47.95;37.05;;;;;;;7.82;67.81;102881.03;5016168;28;20029;-83
2022/03/24 08:11:14;;;;;;;46.42;36.65;;;;;;;7.92;67.06;102890.13;5023554;28;20071;-83
2022/03/24 08:13:40;;;;;;;43.83;36.95;;;;;;;8.08;66.75;102884.38;5016035;28;20370;-82
2022/03/24 08:16:06;;;;;;;45.83;34.22;;;;;;;8.12;66.00;102880.78;5020609;28;20087;-83
2022/03/24 08:18:32;;;;;;;43.25;35.30;;;;;;;8.31;65.74;102897.25;5028078;28;20136;-84
2022/03/24 08:20:57;;;;;;;43.22;34.33;;;;;;;8.34;65.02;102888.53;5028003;28;20454;-84
2022/03/24 08:23:22;;;;;;;42.75;34.50;;;;;;;8.49;64.37;102900.91;5009703;28;20034;-83
2022/03/24 08:25:48;;;;;;;43.05;35.03;;;;;;;8.60;64.03;102892.69;5012513;28;20033;-82
2022/03/24 08:28:14;;;;;;;47.47;34.15;;;;;;;8.73;63.39;102893.91;5024052;28;20038;-83
2022/03/24 08:30:41;;;;;;;40.08;32.20;;;;;;;8.81;61.44;102897.00;5009948;28;20021;-84
2022/03/24 08:33:07;;;;;;;41.53;33.58;;;;;;;8.94;61.88;102895.59;5017607;28;20060;-84
2022/03/24 08:35:32;;;;;;;40.17;32.42;;;;;;;9.03;60.42;102896.97;5011376;28;20065;-83
2022/03/24 08:37:59;;;;;;;37.85;31.40;;;;;;;9.15;60.71;102895.59;5019652;28;20721;-84
2022/03/24 08:40:25;;;;;;;36.83;32.05;;;;;;;9.24;59.73;102901.25;5021527;28;20036;-83
2022/03/24 08:42:50;;;;;;;37.90;31.90;;;;;;;9.36;59.45;102902.47;5020525;28;20083;-84
2022/03/24 08:45:16;;;;;;;41.15;33.30;;;;;;;9.49;60.57;102906.19;5019512;28;20034;-84
2022/03/24 08:47:42;;;;;;;39.78;33.05;;;;;;;9.64;58.96;102899.50;5016091;28;20749;-83
2022/03/24 08:50:10;;;;;;;40.80;33.33;;;;;;;9.81;60.16;102922.09;5028041;28;20029;-83
2022/03/24 08:52:35;;;;;;;42.08;34.08;;;;;;;9.93;58.40;102910.31;5023096;28;20038;-83
2022/03/24 08:55:05;;;;;;;40.35;33.30;;;;;;;10.08;57.82;102920.81;5012313;28;20048;-84
2022/03/24 08:57:31;;;;;;;42.85;33.05;;;;;;;10.21;58.11;102920.28;5008617;28;20028;-84
2022/03/24 09:00:02;;;;;;;42.85;33.97;;;;;;;10.31;58.62;102921.53;5017248;28;20041;-83
2022/03/24 09:02:28;;;;;;;40.33;33.75;;;;;;;10.35;58.46;102902.31;5009945;28;20030;-85
2022/03/24 09:04:54;;;;;;;44.47;33.33;;;;;;;10.53;58.81;102909.22;5013006;28;20025;-81
2022/03/24 09:07:19;;;;;;;38.45;32.58;;;;;;;10.73;56.47;102912.63;5016969;28;20032;-84
2022/03/24 09:09:45;;;;;;;37.55;31.67;;;;;;;10.85;57.79;102928.44;5013769;28;20462;-83
2022/03/24 09:12:11;;;;;;;38.22;30.85;;;;;;;10.93;57.10;102928.03;5012270;28;20033;-82
2022/03/24 09:14:40;;;;;;;34.88;30.23;;;;;;;10.99;55.62;102919.94;4996099;28;20040;-83
2022/03/24 09:17:08;;;;;;;38.95;31.65;;;;;;;11.24;55.09;102934.28;5008512;28;20536;-83
2022/03/24 09:19:34;;;;;;;36.75;30.40;;;;;;;11.39;52.37;102928.31;5000312;28;20036;-83
2022/03/24 09:22:00;;;;;;;35.90;30.02;;;;;;;11.51;51.96;102926.84;5007995;28;20071;-83
2022/03/24 09:24:26;;;;;;;40.38;31.13;;;;;;;11.58;52.80;102921.25;5007657;28;20045;-83
2022/03/24 09:26:52;;;;;;;34.60;29.45;;;;;;;11.62;50.40;102920.16;5008691;28;20040;-84
2022/03/24 09:29:18;;;;;;;34.53;30.08;;;;;;;11.82;49.21;102926.13;5012368;28;20034;-84
2022/03/24 09:31:43;;;;;;;34.10;29.08;;;;;;;11.92;47.73;102916.88;5007222;28;20033;-83
2022/03/24 09:34:09;;;;;;;33.78;28.95;;;;;;;12.08;48.54;102928.16;5020722;28;20122;-84
2022/03/24 09:36:35;;;;;;;35.13;29.48;;;;;;;12.20;48.24;102906.66;5026903;28;20032;-84
2022/03/24 09:39:01;;;;;;;33.78;28.70;;;;;;;12.27;48.28;102914.97;4994727;28;20413;-84
2022/03/24 09:41:27;;;;;;;32.33;27.98;;;;;;;12.45;44.91;102931.34;5016000;28;20077;-84
2022/03/24 09:43:52;;;;;;;35.15;28.83;;;;;;;12.58;46.04;102926.28;5022691;28;20022;-84
2022/03/24 09:46:20;;;;;;;32.10;28.33;;;;;;;12.72;45.05;102924.53;5007409;28;20025;-84
2022/03/24 09:48:45;;;;;;;35.78;28.95;;;;;;;12.71;45.54;102917.66;5007232;28;20044;-84
2022/03/24 09:51:13;;;;;;;31.33;27.45;;;;;;;12.84;44.64;102914.34;5007717;28;20021;-84
2022/03/24 09:53:39;;;;;;;33.67;26.15;;;;;;;12.97;43.23;102923.16;5004688;28;20025;-84
2022/03/24 09:56:05;;;;;;;31.58;26.77;;;;;;;13.03;43.98;102918.41;5013209;28;20025;-85
2022/03/24 09:58:31;;;;;;;33.38;27.80;;;;;;;13.12;44.04;102911.81;4999391;28;20036;-84
2022/03/24 10:00:56;;;;;;;28.27;24.90;;;;;;;13.24;40.82;102905.91;5012729;28;20037;-85
2022/03/24 10:03:22;;;;;;;27.55;23.52;;;;;;;13.47;38.60;102911.50;5006850;28;20113;-83
2022/03/24 10:05:56;;;;;;;28.10;24.17;;;;;;;13.53;39.32;102911.13;5007183;28;20034;-81
2022/03/24 10:08:22;;;;;;;27.27;24.30;;;;;;;13.63;38.93;102907.03;5006900;28;20026;-84
2022/03/24 10:10:48;;;;;;;28.05;23.35;;;;;;;13.72;37.13;102901.28;5007183;28;20109;-84
2022/03/24 10:13:23;;;;;;;27.77;23.15;;;;;;;13.91;38.56;102921.81;5021067;28;20116;-84
2022/03/24 10:15:48;;;;;;;29.63;23.17;;;;;;;13.96;36.12;102908.50;5008699;28;20040;-84
2022/03/24 10:18:16;;;;;;;28.20;23.02;;;;;;;14.08;36.20;102913.78;5011857;28;20041;-84
2022/03/24 10:20:42;;;;;;;27.75;23.38;;;;;;;14.09;37.96;102893.72;5006564;28;20083;-82
2022/03/24 10:23:07;;;;;;;28.38;23.48;;;;;;;14.13;36.92;102900.44;5006699;28;20501;-85
2022/03/24 10:25:36;;;;;;;27.88;22.90;;;;;;;14.31;35.04;102907.09;5006633;28;20033;-82
2022/03/24 10:28:04;;;;;;;28.25;23.25;;;;;;;14.36;35.73;102912.03;5015094;28;20030;-84
2022/03/24 10:30:48;;;;;;;29.23;22.42;;;;;;;14.47;37.27;102908.75;5006627;28;20042;-84
2022/03/24 10:33:33;;;;;;;26.50;20.92;;;;;;;14.55;37.86;102911.69;5022861;28;20105;-84
2022/03/24 10:36:17;;;;;;;25.58;20.70;;;;;;;14.60;37.36;102904.41;5007212;28;20079;-82
2022/03/24 10:38:49;;;;;;;24.95;20.58;;;;;;;14.69;35.39;102909.03;5025356;28;20030;-84
2022/03/24 10:41:20;;;;;;;28.77;21.55;;;;;;;14.75;35.23;102908.63;5000586;28;20041;-83
2022/03/24 10:43:47;;;;;;;28.65;21.13;;;;;;;14.80;33.99;102906.56;5007009;28;20081;-82
2022/03/24 10:46:14;;;;;;;29.70;21.58;;;;;;;14.90;35.04;102911.13;5021627;28;20041;-82
2022/03/24 10:48:39;;;;;;;28.05;21.70;;;;;;;14.92;33.61;102904.06;5030249;28;20887;-82
2022/03/24 10:51:05;;;;;;;26.92;21.33;;;;;;;15.05;33.98;102910.13;5012383;28;20124;-82
2022/03/24 10:53:39;;;;;;;24.70;20.88;;;;;;;15.08;34.28;102909.91;5030252;28;20083;-82
2022/03/24 10:56:17;;;;;;;27.50;22.20;;;;;;;15.11;34.39;102900.09;5030152;28;20060;-82
2022/03/24 10:58:47;;;;;;;26.77;20.33;;;;;;;15.20;35.68;102903.88;5018010;28;20492;-82
2022/03/24 11:01:17;;;;;;;28.45;21.52;;;;;;;15.26;34.13;102910.47;5003925;28;20025;-83
2022/03/24 11:03:43;;;;;;;25.05;21.65;;;;;;;15.25;34.07;102891.28;5011510;28;20032;-82
2022/03/24 11:06:14;;;;;;;26.90;21.27;;;;;;;15.38;34.32;102902.59;5020587;28;20040;-82
2022/03/24 11:08:42;;;;;;;27.52;22.15;;;;;;;15.27;33.10;102889.44;5029828;28;20576;-82
2022/03/24 11:11:13;;;;;;;29.63;22.52;;;;;;;15.45;33.55;102902.19;5020099;28;20048;-82
2022/03/24 11:13:50;;;;;;;26.73;21.27;;;;;;;15.52;33.84;102903.41;5009092;28;20033;-83
2022/03/24 11:16:19;;;;;;;27.65;22.23;;;;;;;15.56;34.07;102897.03;5012193;28;20040;-83
2022/03/24 11:18:46;;;;;;;28.98;22.88;;;;;;;15.61;35.13;102892.31;5023157;28;20038;-83
2022/03/24 11:21:20;;;;;;;25.65;21.02;;;;;;;15.73;35.43;102901.97;5010298;28;20072;-83
2022/03/24 11:23:46;;;;;;;28.38;22.10;;;;;;;15.78;34.62;102899.84;5017383;28;20072;-83
2022/03/24 11:26:12;;;;;;;28.45;21.80;;;;;;;15.79;33.79;102882.38;5029353;28;20021;-83
2022/03/24 11:28:38;;;;;;;31.58;22.63;;;;;;;15.87;33.80;102893.94;5017756;28;20562;-82